createdAt,value
2018-12-20T00:01:09.417Z,23.70
2018-12-20T00:04:12.179Z,23.70
2018-12-20T00:07:14.859Z,23.70
2018-12-20T00:10:17.466Z,23.70
2018-12-20T00:13:20.147Z,23.70
2018-12-20T00:16:22.643Z,23.70
2018-12-20T00:19:25.554Z,23.60
2018-12-20T00:22:30.127Z,23.70
2018-12-20T00:25:32.812Z,23.70
2018-12-20T00:28:35.427Z,23.60
2018-12-20T00:31:38.092Z,23.70
2018-12-20T00:34:40.675Z,23.60
2018-12-20T00:37:43.207Z,23.60
2018-12-20T00:40:45.857Z,23.70
2018-12-20T00:43:48.647Z,23.70
2018-12-20T00:46:51.165Z,23.60
2018-12-20T00:49:53.635Z,23.70
2018-12-20T00:52:56.298Z,23.60
2018-12-20T00:55:58.778Z,23.60
2018-12-20T00:59:01.262Z,23.70
2018-12-20T01:02:03.721Z,23.60
2018-12-20T01:05:06.409Z,23.60
2018-12-20T01:08:09.042Z,23.70
2018-12-20T01:11:11.715Z,23.60
2018-12-20T01:14:14.254Z,23.60
2018-12-20T01:17:18.518Z,23.70
2018-12-20T01:20:21.142Z,23.60
2018-12-20T01:23:23.760Z,23.60
2018-12-20T01:26:29.505Z,23.70
2018-12-20T01:29:33.079Z,23.60
2018-12-20T01:32:35.580Z,23.70
2018-12-20T01:35:38.146Z,23.70
2018-12-20T01:38:40.734Z,23.70
2018-12-20T01:41:43.231Z,23.70
2018-12-20T01:44:53.282Z,23.70
2018-12-20T01:47:51.138Z,23.70
2018-12-20T01:50:53.600Z,23.70
2018-12-20T01:53:56.189Z,23.60
2018-12-20T01:56:58.730Z,23.70
2018-12-20T02:00:01.242Z,23.70
2018-12-20T02:03:04.003Z,23.70
2018-12-20T02:06:06.549Z,23.70
2018-12-20T02:09:09.149Z,23.70
2018-12-20T02:12:11.736Z,23.60
2018-12-20T02:15:15.267Z,23.70
2018-12-20T02:18:17.723Z,23.70
2018-12-20T02:21:20.500Z,23.70
2018-12-20T02:24:23.487Z,23.60
2018-12-20T02:27:26.014Z,23.70
2018-12-20T02:30:28.630Z,23.70
2018-12-20T02:33:31.154Z,23.70
2018-12-20T02:36:33.785Z,23.70
2018-12-20T02:39:36.261Z,23.70
2018-12-20T02:42:39.284Z,23.70
2018-12-20T02:45:41.987Z,23.70
2018-12-20T02:48:44.601Z,23.70
2018-12-20T02:51:47.215Z,23.70
2018-12-20T02:54:49.690Z,23.70
2018-12-20T02:57:52.231Z,23.70
2018-12-20T03:00:54.774Z,23.70
2018-12-20T03:03:57.442Z,23.70
2018-12-20T03:07:00.113Z,23.70
2018-12-20T03:10:02.941Z,23.70
2018-12-20T03:13:05.509Z,23.70
2018-12-20T03:16:08.112Z,23.70
2018-12-20T03:19:11.709Z,23.70
2018-12-20T03:22:14.353Z,23.70
2018-12-20T03:25:16.903Z,23.70
2018-12-20T03:28:19.379Z,23.70
2018-12-20T03:31:21.939Z,23.70
2018-12-20T03:34:24.626Z,23.70
2018-12-20T03:37:27.156Z,23.70
2018-12-20T03:40:29.614Z,23.70
2018-12-20T03:43:32.270Z,23.70
2018-12-20T03:46:34.830Z,23.70
2018-12-20T03:49:37.296Z,23.70
2018-12-20T03:52:40.182Z,23.70
2018-12-20T03:55:42.818Z,23.70
2018-12-20T03:58:45.351Z,23.70
2018-12-20T04:01:47.823Z,23.70
2018-12-20T04:04:50.273Z,23.70
2018-12-20T04:07:52.982Z,23.70
2018-12-20T04:10:57.592Z,23.70
2018-12-20T04:14:00.059Z,23.70
2018-12-20T04:17:02.745Z,23.70
2018-12-20T04:20:07.265Z,23.70
2018-12-20T04:23:09.741Z,23.70
2018-12-20T04:26:13.261Z,23.70
2018-12-20T04:29:16.926Z,23.70
2018-12-20T04:32:19.429Z,23.70
2018-12-20T04:35:21.878Z,23.70
2018-12-20T04:38:24.448Z,23.70
2018-12-20T04:41:27.088Z,23.70
2018-12-20T04:44:29.695Z,23.70
2018-12-20T04:47:32.342Z,23.70
2018-12-20T04:50:34.886Z,23.70
2018-12-20T04:53:41.324Z,23.70
2018-12-20T04:56:43.866Z,23.70
2018-12-20T04:59:46.314Z,23.70
2018-12-20T05:02:48.784Z,23.70
2018-12-20T05:05:51.533Z,23.70
2018-12-20T05:08:54.196Z,23.70
2018-12-20T05:11:56.861Z,23.70
2018-12-20T05:14:59.598Z,23.70
2018-12-20T05:18:02.101Z,23.70
2018-12-20T05:21:04.702Z,23.70
2018-12-20T05:24:07.263Z,23.70
2018-12-20T05:27:09.784Z,23.70
2018-12-20T05:30:12.500Z,23.70
2018-12-20T05:33:16.364Z,23.70
2018-12-20T05:36:20.894Z,23.80
2018-12-20T05:39:23.367Z,23.70
2018-12-20T05:42:25.988Z,23.80
2018-12-20T05:45:28.709Z,23.70
2018-12-20T05:48:31.252Z,23.80
2018-12-20T05:51:34.706Z,23.80
2018-12-20T05:54:37.158Z,23.80
2018-12-20T05:57:39.668Z,23.80
2018-12-20T06:00:42.119Z,23.80
2018-12-20T06:03:44.607Z,23.80
2018-12-20T06:06:47.105Z,23.80
2018-12-20T06:09:49.620Z,23.80
2018-12-20T06:12:52.149Z,23.70
2018-12-20T06:15:54.904Z,23.80
2018-12-20T06:18:57.525Z,23.80
2018-12-20T06:22:00.059Z,23.80
2018-12-20T06:25:02.565Z,23.70
2018-12-20T06:28:05.035Z,23.80
2018-12-20T06:31:07.581Z,23.80
2018-12-20T06:34:10.064Z,23.80
2018-12-20T06:37:12.723Z,23.80
2018-12-20T06:40:16.416Z,23.80
2018-12-20T06:43:19.149Z,23.80
2018-12-20T06:46:21.639Z,23.80
2018-12-20T06:49:24.179Z,23.80
2018-12-20T06:52:26.643Z,23.80
2018-12-20T06:55:29.103Z,23.80
2018-12-20T06:58:31.626Z,23.90
2018-12-20T07:01:34.083Z,23.80
2018-12-20T07:04:36.538Z,23.80
2018-12-20T07:07:38.987Z,23.80
2018-12-20T07:10:41.434Z,23.80
2018-12-20T07:13:44.010Z,23.80
2018-12-20T07:16:46.490Z,23.80
2018-12-20T07:19:48.934Z,23.80
2018-12-20T07:22:51.482Z,23.80
2018-12-20T07:25:53.933Z,23.80
2018-12-20T07:28:56.399Z,23.80
2018-12-20T07:31:58.980Z,23.80
2018-12-20T07:35:01.576Z,23.80
2018-12-20T07:38:05.591Z,23.80
2018-12-20T07:41:09.207Z,23.80
2018-12-20T07:44:15.577Z,23.80
2018-12-20T07:47:18.702Z,23.80
2018-12-20T07:50:21.628Z,23.80
2018-12-20T07:53:25.536Z,23.80
2018-12-20T07:56:28.128Z,23.80
2018-12-20T07:59:30.591Z,23.80
2018-12-20T08:02:33.038Z,23.80
2018-12-20T08:05:35.491Z,23.80
2018-12-20T08:08:41.102Z,23.80
2018-12-20T08:11:43.563Z,23.80
2018-12-20T08:14:46.050Z,23.80
2018-12-20T08:17:48.507Z,23.80
2018-12-20T08:20:50.997Z,23.80
2018-12-20T08:23:53.486Z,23.80
2018-12-20T08:26:58.037Z,23.80
2018-12-20T08:30:00.489Z,23.80
2018-12-20T08:33:02.951Z,23.80
2018-12-20T08:36:06.458Z,23.80
2018-12-20T08:39:08.949Z,23.80
2018-12-20T08:42:12.696Z,23.80
2018-12-20T08:45:16.142Z,23.80
2018-12-20T08:48:18.624Z,23.80
2018-12-20T08:51:21.187Z,23.80
2018-12-20T08:54:23.647Z,23.80
2018-12-20T08:57:28.094Z,23.90
2018-12-20T09:00:30.598Z,23.90
2018-12-20T09:03:33.454Z,23.90
2018-12-20T09:06:35.940Z,23.90
2018-12-20T09:09:38.410Z,23.90
2018-12-20T09:12:41.924Z,23.90
2018-12-20T09:15:45.415Z,23.90
2018-12-20T09:18:47.907Z,24.00
2018-12-20T09:21:53.655Z,24.00
2018-12-20T09:24:57.155Z,24.00
2018-12-20T09:27:59.626Z,24.00
2018-12-20T09:31:02.092Z,24.00
2018-12-20T09:34:04.588Z,24.00
2018-12-20T09:37:08.074Z,24.00
2018-12-20T09:40:10.554Z,24.10
2018-12-20T09:43:13.026Z,24.10
2018-12-20T09:46:15.582Z,24.10
2018-12-20T09:49:18.104Z,24.10
2018-12-20T09:52:21.490Z,24.10
2018-12-20T09:55:23.970Z,24.10
2018-12-20T09:58:27.462Z,24.10
2018-12-20T10:01:29.983Z,24.20
2018-12-20T10:04:32.436Z,24.00
2018-12-20T10:07:34.913Z,24.20
2018-12-20T10:10:41.060Z,24.20
2018-12-20T10:13:43.613Z,24.20
2018-12-20T10:16:46.090Z,24.20
2018-12-20T10:19:48.555Z,24.20
2018-12-20T10:22:51.023Z,24.30
2018-12-20T10:25:53.480Z,24.30
2018-12-20T10:28:55.939Z,24.30
2018-12-20T10:31:58.439Z,24.30
2018-12-20T10:35:01.905Z,24.30
2018-12-20T10:38:04.383Z,24.30
2018-12-20T10:41:10.961Z,24.30
2018-12-20T10:44:13.419Z,24.30
2018-12-20T10:47:28.830Z,24.30
2018-12-20T10:50:27.807Z,24.30
2018-12-20T10:53:32.318Z,24.30
2018-12-20T10:56:34.810Z,24.30
2018-12-20T10:59:39.344Z,24.20
2018-12-20T11:02:47.424Z,23.50
2018-12-20T11:05:55.632Z,24.40
2018-12-20T11:09:03.795Z,24.40
2018-12-20T11:12:08.413Z,24.40
2018-12-20T11:15:10.870Z,24.40
2018-12-20T11:18:13.337Z,24.40
2018-12-20T11:21:15.862Z,24.30
2018-12-20T11:24:19.331Z,24.30
2018-12-20T11:27:23.855Z,24.30
2018-12-20T11:30:26.332Z,24.30
2018-12-20T11:33:28.802Z,24.30
2018-12-20T11:36:31.292Z,24.30
2018-12-20T11:39:33.786Z,23.20
2018-12-20T11:42:36.244Z,24.30
2018-12-20T11:45:38.727Z,24.30
2018-12-20T11:48:41.202Z,24.30
2018-12-20T11:51:44.707Z,24.30
2018-12-20T11:54:47.170Z,24.30
2018-12-20T11:57:49.735Z,24.40
2018-12-20T12:00:52.198Z,24.40
2018-12-20T12:03:57.533Z,24.40
2018-12-20T12:06:59.166Z,24.40
2018-12-20T12:10:01.634Z,24.40
2018-12-20T12:13:04.087Z,24.40
2018-12-20T12:16:06.562Z,24.40
2018-12-20T12:19:11.090Z,24.40
2018-12-20T12:22:13.550Z,24.40
2018-12-20T12:25:18.091Z,24.40
2018-12-20T12:28:20.572Z,24.40
2018-12-20T12:31:28.918Z,24.40
2018-12-20T12:34:33.294Z,24.40
2018-12-20T12:37:36.167Z,24.40
2018-12-20T12:40:38.779Z,24.40
2018-12-20T12:43:41.226Z,25.10
2018-12-20T12:46:43.687Z,24.40
2018-12-20T12:49:46.153Z,24.50
2018-12-20T12:52:48.778Z,24.50
2018-12-20T12:55:51.282Z,24.50
2018-12-20T12:58:53.737Z,24.50
2018-12-20T13:02:00.702Z,24.50
2018-12-20T13:05:03.512Z,24.50
2018-12-20T13:08:05.974Z,24.50
2018-12-20T13:11:08.424Z,24.50
2018-12-20T13:14:10.895Z,24.50
2018-12-20T13:17:14.322Z,24.50
2018-12-20T13:20:17.927Z,24.50
2018-12-20T13:23:20.535Z,24.50
2018-12-20T13:26:23.103Z,24.50
2018-12-20T13:29:25.555Z,24.50
2018-12-20T13:32:29.990Z,24.50
2018-12-20T13:35:34.575Z,24.50
2018-12-20T13:38:36.990Z,24.50
2018-12-20T13:41:39.466Z,24.50
2018-12-20T13:44:41.947Z,24.50
2018-12-20T13:47:44.415Z,24.50
2018-12-20T13:50:46.900Z,24.50
2018-12-20T13:53:49.371Z,24.50
2018-12-20T13:56:51.846Z,24.50
2018-12-20T13:59:54.344Z,24.50
2018-12-20T14:02:57.835Z,24.50
2018-12-20T14:06:00.317Z,24.50
2018-12-20T14:09:02.795Z,24.60
2018-12-20T14:12:05.262Z,24.50
2018-12-20T14:15:07.789Z,24.50
2018-12-20T14:18:10.271Z,24.40
2018-12-20T14:21:12.749Z,24.50
2018-12-20T14:24:15.211Z,24.50
2018-12-20T14:27:22.155Z,24.40
2018-12-20T14:30:24.634Z,24.30
2018-12-20T14:33:27.102Z,24.40
2018-12-20T14:36:29.590Z,24.30
2018-12-20T14:39:32.064Z,24.30
2018-12-20T14:42:34.534Z,24.20
2018-12-20T14:45:37.009Z,24.20
2018-12-20T14:48:39.773Z,24.20
2018-12-20T14:51:42.450Z,24.10
2018-12-20T14:54:45.896Z,24.10
2018-12-20T14:57:50.589Z,24.10
2018-12-20T15:00:53.115Z,24.00
2018-12-20T15:03:55.587Z,24.00
2018-12-20T15:06:58.051Z,24.00
2018-12-20T15:10:01.650Z,24.00
2018-12-20T15:13:04.224Z,23.90
2018-12-20T15:16:06.702Z,23.90
2018-12-20T15:19:09.222Z,23.90
2018-12-20T15:22:15.404Z,23.80
2018-12-20T15:25:18.964Z,23.80
2018-12-20T15:28:23.023Z,23.80
2018-12-20T15:31:27.545Z,23.80
2018-12-20T15:34:30.681Z,23.80
2018-12-20T15:37:33.554Z,23.70
2018-12-20T15:40:36.006Z,23.70
2018-12-20T15:43:40.466Z,23.70
2018-12-20T15:46:43.010Z,23.60
2018-12-20T15:49:46.443Z,23.60
2018-12-20T15:52:48.918Z,23.60
2018-12-20T15:55:51.394Z,23.60
2018-12-20T15:58:53.891Z,23.60
2018-12-20T16:01:56.369Z,23.60
2018-12-20T16:04:58.833Z,23.60
2018-12-20T16:08:06.366Z,23.50
2018-12-20T16:11:08.900Z,23.50
2018-12-20T16:14:12.410Z,23.50
2018-12-20T16:17:14.899Z,23.50
2018-12-20T16:20:17.370Z,23.40
2018-12-20T16:23:20.715Z,23.40
2018-12-20T16:26:25.186Z,23.40
2018-12-20T16:29:27.769Z,23.40
2018-12-20T16:32:30.473Z,23.40
2018-12-20T16:35:33.235Z,23.40
2018-12-20T16:38:35.705Z,23.40
2018-12-20T16:41:39.214Z,23.50
2018-12-20T16:44:42.092Z,23.50
2018-12-20T16:47:44.573Z,23.50
2018-12-20T16:50:47.063Z,23.50
2018-12-20T16:53:49.550Z,23.60
2018-12-20T16:56:52.006Z,23.60
2018-12-20T16:59:54.483Z,23.60
2018-12-20T17:02:57.007Z,23.60
2018-12-20T17:05:59.487Z,23.60
2018-12-20T17:09:01.938Z,23.60
2018-12-20T17:12:05.447Z,23.60
2018-12-20T17:15:07.913Z,23.50
2018-12-20T17:18:10.365Z,23.50
2018-12-20T17:21:14.992Z,23.50
2018-12-20T17:24:19.413Z,23.50
2018-12-20T17:27:21.905Z,23.50
2018-12-20T17:30:24.374Z,23.50
2018-12-20T17:33:26.846Z,23.50
2018-12-20T17:36:29.318Z,23.40
2018-12-20T17:39:33.867Z,23.40
2018-12-20T17:42:36.326Z,23.40
2018-12-20T17:45:38.812Z,23.40
2018-12-20T17:48:41.271Z,23.40
2018-12-20T17:51:43.804Z,23.40
2018-12-20T17:54:46.280Z,23.30
2018-12-20T17:57:49.748Z,23.40
2018-12-20T18:00:53.255Z,23.40
2018-12-20T18:03:56.734Z,23.40
2018-12-20T18:06:59.215Z,23.30
2018-12-20T18:10:03.036Z,23.30
2018-12-20T18:13:05.487Z,23.30
2018-12-20T18:16:08.907Z,23.30
2018-12-20T18:19:12.531Z,23.30
2018-12-20T18:22:15.143Z,23.30
2018-12-20T18:25:18.894Z,23.20
2018-12-20T18:28:22.774Z,23.20
2018-12-20T18:31:26.911Z,23.20
2018-12-20T18:34:30.611Z,23.20
2018-12-20T18:37:34.311Z,23.20
2018-12-20T18:40:40.080Z,23.20
2018-12-20T18:43:44.590Z,23.20
2018-12-20T18:46:47.274Z,23.10
2018-12-20T18:49:49.750Z,23.10
2018-12-20T18:52:52.226Z,23.10
2018-12-20T18:55:54.682Z,23.10
2018-12-20T18:58:57.142Z,23.10
2018-12-20T19:02:00.602Z,23.10
2018-12-20T19:05:03.102Z,23.10
2018-12-20T19:08:08.630Z,23.10
2018-12-20T19:11:11.111Z,23.10
2018-12-20T19:14:16.266Z,23.10
2018-12-20T19:17:19.742Z,23.10
2018-12-20T19:20:22.263Z,23.10
2018-12-20T19:23:24.719Z,23.10
2018-12-20T19:26:27.278Z,23.10
2018-12-20T19:29:29.742Z,23.10
2018-12-20T19:32:32.205Z,23.10
2018-12-20T19:35:36.699Z,23.10
2018-12-20T19:38:39.482Z,23.00
2018-12-20T19:41:42.987Z,23.00
2018-12-20T19:44:47.017Z,23.00
2018-12-20T19:47:50.734Z,23.00
2018-12-20T19:50:54.653Z,23.00
2018-12-20T19:54:00.412Z,23.00
2018-12-20T19:57:04.959Z,23.00
2018-12-20T20:00:12.013Z,23.00
2018-12-20T20:03:15.702Z,23.00
2018-12-20T20:06:19.750Z,23.00
2018-12-20T20:09:23.446Z,23.00
2018-12-20T20:12:29.195Z,23.00
2018-12-20T20:15:32.887Z,23.00
2018-12-20T20:18:36.364Z,23.00
2018-12-20T20:21:40.327Z,23.00
2018-12-20T20:24:43.627Z,23.00
2018-12-20T20:27:47.307Z,23.00
2018-12-20T20:30:49.943Z,23.00
2018-12-20T20:33:52.408Z,23.00
2018-12-20T20:36:54.865Z,23.00
2018-12-20T20:39:58.388Z,23.00
2018-12-20T20:43:00.843Z,23.00
2018-12-20T20:46:03.382Z,23.00
2018-12-20T20:49:05.856Z,22.90
2018-12-20T20:52:08.308Z,22.90
2018-12-20T20:55:10.783Z,22.90
2018-12-20T20:58:13.252Z,22.90
2018-12-20T21:01:18.987Z,22.90
2018-12-20T21:04:21.507Z,22.90
2018-12-20T21:07:23.988Z,23.00
2018-12-20T21:10:26.463Z,22.90
2018-12-20T21:13:28.930Z,22.90
2018-12-20T21:16:32.398Z,23.00
2018-12-20T21:19:34.883Z,22.90
2018-12-20T21:22:37.362Z,22.90
2018-12-20T21:25:39.844Z,22.90
2018-12-20T21:28:42.310Z,22.90
2018-12-20T21:31:44.783Z,22.90
2018-12-20T21:34:47.262Z,22.90
2018-12-20T21:37:49.724Z,22.90
2018-12-20T21:40:52.224Z,22.90
2018-12-20T21:43:54.694Z,22.90
2018-12-20T21:46:57.166Z,22.90
2018-12-20T21:49:59.658Z,22.90
2018-12-20T21:53:02.119Z,22.80
2018-12-20T21:56:04.616Z,22.90
2018-12-20T21:59:07.074Z,22.90
2018-12-20T22:02:11.606Z,22.90
2018-12-20T22:05:15.130Z,22.80
2018-12-20T22:08:18.615Z,22.90
2018-12-20T22:11:21.087Z,22.90
2018-12-20T22:14:23.567Z,22.90
2018-12-20T22:17:26.034Z,22.80
2018-12-20T22:20:28.506Z,22.80
2018-12-20T22:23:31.000Z,22.80
2018-12-20T22:26:33.530Z,22.80
2018-12-20T22:29:36.056Z,22.80
2018-12-20T22:32:38.657Z,22.70
2018-12-20T22:35:41.211Z,22.70
2018-12-20T22:38:43.720Z,22.70
2018-12-20T22:41:46.205Z,22.70
2018-12-20T22:44:48.712Z,22.70
2018-12-20T22:47:51.307Z,22.60
2018-12-20T22:50:56.039Z,22.60
2018-12-20T22:53:58.988Z,22.60
2018-12-20T22:57:01.599Z,22.60
2018-12-20T23:00:05.210Z,22.60
2018-12-20T23:03:07.722Z,22.50
2018-12-20T23:06:11.242Z,22.50
2018-12-20T23:09:13.762Z,22.50
2018-12-20T23:12:18.024Z,22.50
2018-12-20T23:15:20.952Z,22.50
2018-12-20T23:18:23.552Z,22.50
2018-12-20T23:21:26.025Z,22.40
2018-12-20T23:24:28.656Z,22.40
2018-12-20T23:27:33.300Z,22.40
2018-12-20T23:30:38.013Z,22.40
2018-12-20T23:33:40.502Z,22.40
2018-12-20T23:36:43.875Z,22.40
2018-12-20T23:39:47.541Z,22.30
2018-12-20T23:42:49.991Z,22.30
2018-12-20T23:45:52.541Z,22.30
2018-12-20T23:48:56.003Z,22.30
2018-12-20T23:51:59.430Z,22.30
2018-12-20T23:55:01.919Z,22.30
2018-12-20T23:58:04.550Z,22.30
